sensor_id;sensor_type;location;lat;lon;timestamp;pressure;altitude;pressure_sealevel;temperature;humidity
23172;BME280;11754;42.664;23.594;2023-11-19T00:01:52;95301.81;;;4.25;69.46
23172;BME280;11754;42.664;23.594;2023-11-19T00:04:18;95323.84;;;4.32;69.57
23172;BME280;11754;42.664;23.594;2023-11-19T00:06:43;95331.25;;;4.27;69.60
23172;BME280;11754;42.664;23.594;2023-11-19T00:09:09;95324.38;;;4.26;69.95
23172;BME280;11754;42.664;23.594;2023-11-19T00:11:34;95319.69;;;4.20;69.24
23172;BME280;11754;42.664;23.594;2023-11-19T00:13:59;95333.41;;;4.22;69.89
23172;BME280;11754;42.664;23.594;2023-11-19T00:16:25;95339.34;;;4.24;69.74
23172;BME280;11754;42.664;23.594;2023-11-19T00:18:50;95339.66;;;4.30;69.45
23172;BME280;11754;42.664;23.594;2023-11-19T00:21:16;95343.56;;;4.15;68.81
23172;BME280;11754;42.664;23.594;2023-11-19T00:23:41;95340.31;;;4.23;69.48
23172;BME280;11754;42.664;23.594;2023-11-19T00:26:07;95344.72;;;4.32;69.01
23172;BME280;11754;42.664;23.594;2023-11-19T00:35:15;95342.78;;;4.24;69.10
23172;BME280;11754;42.664;23.594;2023-11-19T00:37:41;95354.03;;;4.25;69.38
23172;BME280;11754;42.664;23.594;2023-11-19T00:40:08;95341.94;;;4.24;68.90
23172;BME280;11754;42.664;23.594;2023-11-19T00:42:35;95357.38;;;4.27;68.57
23172;BME280;11754;42.664;23.594;2023-11-19T00:45:00;95346.44;;;4.12;68.85
23172;BME280;11754;42.664;23.594;2023-11-19T00:47:26;95341.06;;;4.04;68.98
23172;BME280;11754;42.664;23.594;2023-11-19T00:49:52;95352.81;;;3.98;69.30
23172;BME280;11754;42.664;23.594;2023-11-19T00:52:17;95357.78;;;4.01;69.18
23172;BME280;11754;42.664;23.594;2023-11-19T00:54:43;95344.81;;;3.90;69.34
23172;BME280;11754;42.664;23.594;2023-11-19T00:57:09;95350.03;;;3.90;69.23
23172;BME280;11754;42.664;23.594;2023-11-19T00:59:34;95352.09;;;3.96;69.42
23172;BME280;11754;42.664;23.594;2023-11-19T01:02:00;95356.66;;;3.94;69.18
23172;BME280;11754;42.664;23.594;2023-11-19T01:04:33;95365.06;;;4.07;69.34
23172;BME280;11754;42.664;23.594;2023-11-19T01:06:59;95369.69;;;3.94;69.20
23172;BME280;11754;42.664;23.594;2023-11-19T01:09:26;95369.22;;;3.89;69.52
23172;BME280;11754;42.664;23.594;2023-11-19T01:11:51;95357.94;;;3.79;69.70
23172;BME280;11754;42.664;23.594;2023-11-19T01:14:17;95364.84;;;3.69;70.39
23172;BME280;11754;42.664;23.594;2023-11-19T01:16:42;95371.59;;;3.71;70.36
23172;BME280;11754;42.664;23.594;2023-11-19T01:19:08;95369.50;;;3.65;70.64
23172;BME280;11754;42.664;23.594;2023-11-19T01:21:33;95368.53;;;3.66;71.09
23172;BME280;11754;42.664;23.594;2023-11-19T01:23:59;95366.31;;;3.61;71.38
23172;BME280;11754;42.664;23.594;2023-11-19T01:26:29;95370.13;;;3.57;70.74
23172;BME280;11754;42.664;23.594;2023-11-19T01:28:54;95360.63;;;3.56;71.08
23172;BME280;11754;42.664;23.594;2023-11-19T01:31:20;95371.28;;;3.65;71.82
23172;BME280;11754;42.664;23.594;2023-11-19T01:33:45;95363.31;;;3.66;71.53
23172;BME280;11754;42.664;23.594;2023-11-19T01:36:14;95366.06;;;3.65;71.72
23172;BME280;11754;42.664;23.594;2023-11-19T01:38:40;95360.84;;;3.65;71.67
23172;BME280;11754;42.664;23.594;2023-11-19T01:41:05;95365.78;;;3.68;71.51
23172;BME280;11754;42.664;23.594;2023-11-19T01:43:32;95377.84;;;3.80;71.94
23172;BME280;11754;42.664;23.594;2023-11-19T01:45:58;95369.69;;;3.73;71.17
23172;BME280;11754;42.664;23.594;2023-11-19T01:48:24;95350.78;;;3.81;71.29
23172;BME280;11754;42.664;23.594;2023-11-19T01:50:49;95360.56;;;3.68;70.62
23172;BME280;11754;42.664;23.594;2023-11-19T01:53:17;95378.16;;;3.66;71.67
23172;BME280;11754;42.664;23.594;2023-11-19T01:55:43;95362.25;;;3.69;70.94
23172;BME280;11754;42.664;23.594;2023-11-19T01:58:08;95366.31;;;3.61;70.90
23172;BME280;11754;42.664;23.594;2023-11-19T02:00:34;95354.22;;;3.60;71.13
23172;BME280;11754;42.664;23.594;2023-11-19T02:03:00;95362.25;;;3.69;70.86
23172;BME280;11754;42.664;23.594;2023-11-19T02:05:26;95365.78;;;3.68;70.31
23172;BME280;11754;42.664;23.594;2023-11-19T02:07:52;95345.69;;;3.58;70.46
23172;BME280;11754;42.664;23.594;2023-11-19T02:10:17;95357.94;;;3.79;70.70
23172;BME280;11754;42.664;23.594;2023-11-19T02:12:44;95346.59;;;3.69;70.53
23172;BME280;11754;42.664;23.594;2023-11-19T02:15:10;95350.13;;;3.68;70.15
23172;BME280;11754;42.664;23.594;2023-11-19T02:17:36;95351.81;;;3.69;70.44
23172;BME280;11754;42.664;23.594;2023-11-19T02:20:03;95352.81;;;3.56;70.11
23172;BME280;11754;42.664;23.594;2023-11-19T02:22:31;95339.84;;;3.45;70.01
23172;BME280;11754;42.664;23.594;2023-11-19T02:25:01;95349.53;;;3.54;70.17
23172;BME280;11754;42.664;23.594;2023-11-19T02:27:51;95348.13;;;3.50;70.32
23172;BME280;11754;42.664;23.594;2023-11-19T02:30:52;95351.81;;;3.69;69.05
23172;BME280;11754;42.664;23.594;2023-11-19T02:33:18;95370.44;;;3.64;69.90
23172;BME280;11754;42.664;23.594;2023-11-19T02:35:44;95360.56;;;3.68;69.38
23172;BME280;11754;42.664;23.594;2023-11-19T02:38:09;95380.56;;;3.57;69.56
23172;BME280;11754;42.664;23.594;2023-11-19T02:40:34;95369.97;;;3.38;69.66
23172;BME280;11754;42.664;23.594;2023-11-19T02:43:00;95372.72;;;3.36;70.08
23172;BME280;11754;42.664;23.594;2023-11-19T02:45:26;95358.59;;;3.39;70.75
23172;BME280;11754;42.664;23.594;2023-11-19T02:47:52;95361.22;;;3.28;70.57
23172;BME280;11754;42.664;23.594;2023-11-19T02:50:19;95372.03;;;3.23;70.56
23172;BME280;11754;42.664;23.594;2023-11-19T02:52:51;95370.84;;;3.27;71.05
23172;BME280;11754;42.664;23.594;2023-11-19T02:55:17;95371.56;;;3.29;70.81
23172;BME280;11754;42.664;23.594;2023-11-19T02:57:43;95363.84;;;3.28;70.71
23172;BME280;11754;42.664;23.594;2023-11-19T03:00:20;95368.47;;;3.24;70.76
23172;BME280;11754;42.664;23.594;2023-11-19T03:02:50;95360.22;;;3.19;70.53
23172;BME280;11754;42.664;23.594;2023-11-19T03:05:39;95356.41;;;3.23;70.92
23172;BME280;11754;42.664;23.594;2023-11-19T03:08:05;95360.53;;;3.26;70.74
23172;BME280;11754;42.664;23.594;2023-11-19T03:10:31;95366.72;;;3.25;70.68
23172;BME280;11754;42.664;23.594;2023-11-19T03:12:56;95377.59;;;3.30;69.92
23172;BME280;11754;42.664;23.594;2023-11-19T03:15:22;95386.44;;;3.38;70.07
23172;BME280;11754;42.664;23.594;2023-11-19T03:17:48;95393.31;;;3.40;70.20
23172;BME280;11754;42.664;23.594;2023-11-19T03:30:17;95393.56;;;3.69;69.46
23172;BME280;11754;42.664;23.594;2023-11-19T03:32:43;95399.50;;;3.59;69.51
23172;BME280;11754;42.664;23.594;2023-11-19T03:35:08;95404.34;;;3.64;69.30
23172;BME280;11754;42.664;23.594;2023-11-19T03:37:34;95385.97;;;3.66;68.88
23172;BME280;11754;42.664;23.594;2023-11-19T03:40:00;95392.97;;;3.65;68.99
23172;BME280;11754;42.664;23.594;2023-11-19T03:42:26;95411.09;;;3.67;69.16
23172;BME280;11754;42.664;23.594;2023-11-19T03:44:53;95409.63;;;3.74;68.96
23172;BME280;11754;42.664;23.594;2023-11-19T03:47:18;95395.63;;;3.75;68.42
23172;BME280;11754;42.664;23.594;2023-11-19T03:49:50;95406.53;;;3.80;68.38
23172;BME280;11754;42.664;23.594;2023-11-19T03:52:17;95383.88;;;3.59;68.53
23172;BME280;11754;42.664;23.594;2023-11-19T03:54:42;95414.81;;;3.85;68.56
23172;BME280;11754;42.664;23.594;2023-11-19T03:57:08;95411.25;;;3.86;68.47
23172;BME280;11754;42.664;23.594;2023-11-19T03:59:35;95412.75;;;3.89;68.34
23172;BME280;11754;42.664;23.594;2023-11-19T04:02:01;95423.34;;;3.87;68.23
23172;BME280;11754;42.664;23.594;2023-11-19T04:04:28;95431.84;;;3.89;68.61
23172;BME280;11754;42.664;23.594;2023-11-19T04:06:54;95421.75;;;3.96;68.53
23172;BME280;11754;42.664;23.594;2023-11-19T04:09:20;95421.63;;;3.97;68.12
23172;BME280;11754;42.664;23.594;2023-11-19T04:11:45;95426.63;;;3.89;68.19
23172;BME280;11754;42.664;23.594;2023-11-19T04:14:15;95428.63;;;3.97;68.21
23172;BME280;11754;42.664;23.594;2023-11-19T04:16:43;95425.47;;;3.93;68.56
23172;BME280;11754;42.664;23.594;2023-11-19T04:19:08;95416.53;;;3.96;67.88
23172;BME280;11754;42.664;23.594;2023-11-19T04:21:34;95432.00;;;4.08;67.82
23172;BME280;11754;42.664;23.594;2023-11-19T04:23:59;95424.69;;;4.02;67.14
23172;BME280;11754;42.664;23.594;2023-11-19T04:26:26;95421.94;;;3.83;67.44
23172;BME280;11754;42.664;23.594;2023-11-19T04:28:51;95428.06;;;3.93;67.82
23172;BME280;11754;42.664;23.594;2023-11-19T04:34:38;95441.31;;;4.01;67.68
23172;BME280;11754;42.664;23.594;2023-11-19T04:37:04;95438.56;;;4.03;67.14
23172;BME280;11754;42.664;23.594;2023-11-19T04:39:29;95442.44;;;4.08;67.25
23172;BME280;11754;42.664;23.594;2023-11-19T04:41:55;95452.94;;;3.97;67.32
23172;BME280;11754;42.664;23.594;2023-11-19T04:44:21;95448.66;;;3.96;67.68
23172;BME280;11754;42.664;23.594;2023-11-19T04:46:47;95456.88;;;3.92;67.06
23172;BME280;11754;42.664;23.594;2023-11-19T04:49:13;95443.25;;;3.88;67.40
23172;BME280;11754;42.664;23.594;2023-11-19T04:51:43;95439.38;;;3.82;67.70
23172;BME280;11754;42.664;23.594;2023-11-19T04:54:10;95437.84;;;3.80;67.65
23172;BME280;11754;42.664;23.594;2023-11-19T04:56:36;95426.94;;;3.75;68.24
23172;BME280;11754;42.664;23.594;2023-11-19T04:59:05;95441.66;;;3.76;68.25
23172;BME280;11754;42.664;23.594;2023-11-19T05:01:31;95435.09;;;3.81;67.86
23172;BME280;11754;42.664;23.594;2023-11-19T05:03:57;95436.81;;;3.92;68.09
23172;BME280;11754;42.664;23.594;2023-11-19T05:06:29;95440.00;;;3.96;67.75
23172;BME280;11754;42.664;23.594;2023-11-19T05:12:31;95474.22;;;3.81;67.73
23172;BME280;11754;42.664;23.594;2023-11-19T05:14:56;95481.13;;;3.82;67.88
23172;BME280;11754;42.664;23.594;2023-11-19T05:17:23;95491.00;;;3.79;67.48
23172;BME280;11754;42.664;23.594;2023-11-19T05:19:49;95486.94;;;3.75;67.82
23172;BME280;11754;42.664;23.594;2023-11-19T05:22:14;95483.97;;;3.79;67.82
23172;BME280;11754;42.664;23.594;2023-11-19T05:24:39;95472.91;;;3.87;67.60
23172;BME280;11754;42.664;23.594;2023-11-19T05:27:06;95480.50;;;3.90;67.83
23172;BME280;11754;42.664;23.594;2023-11-19T05:29:33;95483.78;;;3.92;67.36
23172;BME280;11754;42.664;23.594;2023-11-19T05:31:58;95477.09;;;3.78;67.48
23172;BME280;11754;42.664;23.594;2023-11-19T05:34:24;95476.16;;;3.79;67.47
23172;BME280;11754;42.664;23.594;2023-11-19T05:36:50;95487.22;;;3.72;67.30
23172;BME280;11754;42.664;23.594;2023-11-19T05:39:16;95498.34;;;3.74;67.75
23172;BME280;11754;42.664;23.594;2023-11-19T05:41:42;95473.94;;;3.64;67.09
23172;BME280;11754;42.664;23.594;2023-11-19T05:44:07;95462.09;;;3.59;67.57
23172;BME280;11754;42.664;23.594;2023-11-19T05:46:33;95474.66;;;3.66;67.44
23172;BME280;11754;42.664;23.594;2023-11-19T05:48:58;95487.94;;;3.63;68.09
23172;BME280;11754;42.664;23.594;2023-11-19T05:51:24;95481.75;;;3.64;68.24
23172;BME280;11754;42.664;23.594;2023-11-19T05:53:50;95483.56;;;3.63;67.85
23172;BME280;11754;42.664;23.594;2023-11-19T05:56:15;95479.38;;;3.72;67.52
23172;BME280;11754;42.664;23.594;2023-11-19T05:58:46;95483.66;;;3.73;67.83
23172;BME280;11754;42.664;23.594;2023-11-19T06:01:13;95496.06;;;3.80;67.84
23172;BME280;11754;42.664;23.594;2023-11-19T06:03:39;95492.34;;;3.94;67.81
23172;BME280;11754;42.664;23.594;2023-11-19T06:06:04;95497.84;;;3.80;67.37
23172;BME280;11754;42.664;23.594;2023-11-19T06:08:30;95501.66;;;3.76;67.57
23172;BME280;11754;42.664;23.594;2023-11-19T06:10:56;95513.38;;;3.81;67.18
23172;BME280;11754;42.664;23.594;2023-11-19T06:13:22;95516.50;;;3.75;67.24
23172;BME280;11754;42.664;23.594;2023-11-19T06:15:47;95519.88;;;3.87;67.12
23172;BME280;11754;42.664;23.594;2023-11-19T06:18:22;95524.63;;;3.82;67.16
23172;BME280;11754;42.664;23.594;2023-11-19T06:20:48;95519.59;;;4.01;66.79
23172;BME280;11754;42.664;23.594;2023-11-19T06:23:15;95507.66;;;3.88;66.69
23172;BME280;11754;42.664;23.594;2023-11-19T06:25:40;95501.88;;;3.84;66.94
23172;BME280;11754;42.664;23.594;2023-11-19T06:28:05;95492.16;;;3.86;66.83
23172;BME280;11754;42.664;23.594;2023-11-19T06:30:31;95490.47;;;3.85;66.48
23172;BME280;11754;42.664;23.594;2023-11-19T06:32:58;95504.66;;;3.92;66.51
23172;BME280;11754;42.664;23.594;2023-11-19T06:35:23;95496.16;;;3.90;67.03
23172;BME280;11754;42.664;23.594;2023-11-19T06:37:49;95502.53;;;3.97;65.98
23172;BME280;11754;42.664;23.594;2023-11-19T06:40:14;95494.00;;;3.95;66.26
23172;BME280;11754;42.664;23.594;2023-11-19T06:42:41;95503.47;;;3.96;66.42
23172;BME280;11754;42.664;23.594;2023-11-19T06:45:06;95503.25;;;3.88;66.40
23172;BME280;11754;42.664;23.594;2023-11-19T06:47:32;95509.72;;;3.73;66.63
23172;BME280;11754;42.664;23.594;2023-11-19T06:49:58;95526.22;;;3.73;66.52
23172;BME280;11754;42.664;23.594;2023-11-19T06:52:23;95527.16;;;3.72;67.38
23172;BME280;11754;42.664;23.594;2023-11-19T06:54:49;95520.16;;;3.73;67.47
23172;BME280;11754;42.664;23.594;2023-11-19T06:57:15;95525.22;;;3.85;67.42
23172;BME280;11754;42.664;23.594;2023-11-19T06:59:40;95529.59;;;3.85;66.84
23172;BME280;11754;42.664;23.594;2023-11-19T07:02:06;95519.94;;;4.08;66.65
23172;BME280;11754;42.664;23.594;2023-11-19T07:04:31;95526.88;;;4.19;66.30
23172;BME280;11754;42.664;23.594;2023-11-19T07:06:58;95536.81;;;4.25;65.54
23172;BME280;11754;42.664;23.594;2023-11-19T07:09:25;95530.56;;;4.16;65.14
23172;BME280;11754;42.664;23.594;2023-11-19T07:11:50;95546.59;;;4.12;64.99
23172;BME280;11754;42.664;23.594;2023-11-19T07:14:17;95543.78;;;4.03;65.03
23172;BME280;11754;42.664;23.594;2023-11-19T07:16:43;95560.59;;;4.10;64.86
23172;BME280;11754;42.664;23.594;2023-11-19T07:19:09;95562.31;;;4.00;64.80
23172;BME280;11754;42.664;23.594;2023-11-19T07:21:34;95569.88;;;4.03;65.28
23172;BME280;11754;42.664;23.594;2023-11-19T07:24:00;95579.09;;;4.19;65.38
23172;BME280;11754;42.664;23.594;2023-11-19T07:26:27;95542.31;;;4.10;64.75
23172;BME280;11754;42.664;23.594;2023-11-19T07:28:52;95548.25;;;4.13;63.75
23172;BME280;11754;42.664;23.594;2023-11-19T07:31:18;95569.03;;;4.35;64.22
23172;BME280;11754;42.664;23.594;2023-11-19T07:33:46;95563.25;;;4.31;64.12
23172;BME280;11754;42.664;23.594;2023-11-19T07:36:13;95574.25;;;4.35;63.54
23172;BME280;11754;42.664;23.594;2023-11-19T07:38:39;95581.22;;;4.46;63.59
23172;BME280;11754;42.664;23.594;2023-11-19T07:41:06;95575.47;;;4.31;63.28
23172;BME280;11754;42.664;23.594;2023-11-19T07:43:32;95577.75;;;4.24;62.77
23172;BME280;11754;42.664;23.594;2023-11-19T07:45:57;95573.88;;;4.40;62.79
23172;BME280;11754;42.664;23.594;2023-11-19T07:48:25;95591.28;;;4.50;62.13
23172;BME280;11754;42.664;23.594;2023-11-19T07:50:52;95584.66;;;4.46;62.52
23172;BME280;11754;42.664;23.594;2023-11-19T07:53:18;95590.13;;;4.43;62.20
23172;BME280;11754;42.664;23.594;2023-11-19T07:59:40;95597.53;;;4.59;61.94
23172;BME280;11754;42.664;23.594;2023-11-19T08:02:05;95588.81;;;4.49;62.17
23172;BME280;11754;42.664;23.594;2023-11-19T08:04:30;95568.94;;;4.25;61.98
23172;BME280;11754;42.664;23.594;2023-11-19T08:06:56;95602.78;;;4.27;62.79
23172;BME280;11754;42.664;23.594;2023-11-19T08:09:21;95602.59;;;4.19;63.28
23172;BME280;11754;42.664;23.594;2023-11-19T08:11:48;95590.94;;;4.23;62.11
23172;BME280;11754;42.664;23.594;2023-11-19T08:14:13;95597.88;;;4.66;61.77
23172;BME280;11754;42.664;23.594;2023-11-19T08:16:41;95591.44;;;4.91;62.11
23172;BME280;11754;42.664;23.594;2023-11-19T08:19:07;95597.38;;;5.23;59.69
23172;BME280;11754;42.664;23.594;2023-11-19T08:21:33;95596.13;;;5.48;58.98
23172;BME280;11754;42.664;23.594;2023-11-19T08:23:59;95600.41;;;6.09;57.95
23172;BME280;11754;42.664;23.594;2023-11-19T08:26:24;95587.78;;;6.53;55.97
23172;BME280;11754;42.664;23.594;2023-11-19T08:28:50;95586.66;;;6.65;54.58
23172;BME280;11754;42.664;23.594;2023-11-19T08:31:17;95584.19;;;6.64;54.87
23172;BME280;11754;42.664;23.594;2023-11-19T08:33:42;95589.84;;;6.69;54.73
23172;BME280;11754;42.664;23.594;2023-11-19T08:36:08;95586.66;;;6.75;54.08
23172;BME280;11754;42.664;23.594;2023-11-19T08:38:33;95593.69;;;6.65;54.14
23172;BME280;11754;42.664;23.594;2023-11-19T08:40:59;95602.81;;;6.32;54.66
23172;BME280;11754;42.664;23.594;2023-11-19T08:43:27;95607.63;;;6.17;55.70
23172;BME280;11754;42.664;23.594;2023-11-19T08:45:52;95588.56;;;5.95;55.55
23172;BME280;11754;42.664;23.594;2023-11-19T08:48:18;95603.19;;;6.08;55.79
23172;BME280;11754;42.664;23.594;2023-11-19T08:50:43;95614.75;;;5.95;55.34
23172;BME280;11754;42.664;23.594;2023-11-19T08:53:08;95605.44;;;6.32;55.07
23172;BME280;11754;42.664;23.594;2023-11-19T08:55:34;95597.72;;;6.49;53.99
23172;BME280;11754;42.664;23.594;2023-11-19T09:18:10;95577.75;;;5.39;56.79
23172;BME280;11754;42.664;23.594;2023-11-19T09:20:35;95579.81;;;5.35;57.13
23172;BME280;11754;42.664;23.594;2023-11-19T09:23:04;95589.47;;;5.44;57.19
23172;BME280;11754;42.664;23.594;2023-11-19T09:25:30;95612.06;;;5.45;57.75
23172;BME280;11754;42.664;23.594;2023-11-19T09:27:56;95605.00;;;5.36;57.14
23172;BME280;11754;42.664;23.594;2023-11-19T09:30:21;95606.53;;;5.39;56.52
23172;BME280;11754;42.664;23.594;2023-11-19T09:32:48;95622.97;;;5.20;57.57
23172;BME280;11754;42.664;23.594;2023-11-19T09:35:13;95608.75;;;5.43;57.06
23172;BME280;11754;42.664;23.594;2023-11-19T09:37:40;95596.44;;;5.65;56.56
23172;BME280;11754;42.664;23.594;2023-11-19T09:40:06;95600.53;;;5.58;56.00
23172;BME280;11754;42.664;23.594;2023-11-19T09:42:43;95578.78;;;5.57;56.28
23172;BME280;11754;42.664;23.594;2023-11-19T09:45:13;95590.97;;;5.87;56.13
23172;BME280;11754;42.664;23.594;2023-11-19T09:47:43;95581.88;;;5.91;55.37
23172;BME280;11754;42.664;23.594;2023-11-19T09:50:10;95585.84;;;6.07;55.15
23172;BME280;11754;42.664;23.594;2023-11-19T09:52:39;95565.00;;;5.95;54.77
23172;BME280;11754;42.664;23.594;2023-11-19T09:55:05;95565.81;;;6.06;54.84
23172;BME280;11754;42.664;23.594;2023-11-19T09:57:31;95564.03;;;6.16;54.23
23172;BME280;11754;42.664;23.594;2023-11-19T09:59:58;95564.34;;;6.32;54.42
23172;BME280;11754;42.664;23.594;2023-11-19T10:02:23;95567.38;;;6.57;53.56
23172;BME280;11754;42.664;23.594;2023-11-19T10:04:49;95559.59;;;6.84;52.39
23172;BME280;11754;42.664;23.594;2023-11-19T10:07:16;95553.13;;;7.26;51.29
23172;BME280;11754;42.664;23.594;2023-11-19T10:09:42;95561.25;;;7.32;50.24
23172;BME280;11754;42.664;23.594;2023-11-19T10:12:08;95550.75;;;9.97;47.75
23172;BME280;11754;42.664;23.594;2023-11-19T10:14:35;95528.59;;;15.75;36.84
23172;BME280;11754;42.664;23.594;2023-11-19T10:17:03;95528.31;;;18.17;30.75
23172;BME280;11754;42.664;23.594;2023-11-19T10:19:29;95528.13;;;16.94;30.80
23172;BME280;11754;42.664;23.594;2023-11-19T10:21:54;95531.66;;;15.44;32.95
23172;BME280;11754;42.664;23.594;2023-11-19T10:24:32;95536.44;;;13.83;34.44
23172;BME280;11754;42.664;23.594;2023-11-19T10:27:00;95545.16;;;12.49;36.88
23172;BME280;11754;42.664;23.594;2023-11-19T10:29:26;95536.81;;;12.37;37.80
23172;BME280;11754;42.664;23.594;2023-11-19T10:31:58;95521.47;;;15.82;33.60
23172;BME280;11754;42.664;23.594;2023-11-19T10:34:25;95503.16;;;21.62;27.13
23172;BME280;11754;42.664;23.594;2023-11-19T10:36:51;95494.03;;;26.27;21.23
23172;BME280;11754;42.664;23.594;2023-11-19T10:39:17;95487.69;;;23.96;21.50
23172;BME280;11754;42.664;23.594;2023-11-19T10:41:43;95481.56;;;20.68;24.41
23172;BME280;11754;42.664;23.594;2023-11-19T10:44:09;95481.75;;;18.83;26.52
23172;BME280;11754;42.664;23.594;2023-11-19T10:46:41;95485.63;;;16.39;29.34
23172;BME280;11754;42.664;23.594;2023-11-19T10:49:09;95497.28;;;15.07;31.67
23172;BME280;11754;42.664;23.594;2023-11-19T10:51:35;95490.75;;;15.73;30.98
23172;BME280;11754;42.664;23.594;2023-11-19T10:54:05;95489.94;;;15.09;31.74
23172;BME280;11754;42.664;23.594;2023-11-19T10:56:32;95491.81;;;14.23;32.74
23172;BME280;11754;42.664;23.594;2023-11-19T10:58:59;95497.06;;;13.51;33.98
23172;BME280;11754;42.664;23.594;2023-11-19T11:01:29;95478.94;;;18.39;28.57
23172;BME280;11754;42.664;23.594;2023-11-19T11:03:59;95475.16;;;19.90;25.60
23172;BME280;11754;42.664;23.594;2023-11-19T11:06:27;95470.56;;;18.92;26.69
23172;BME280;11754;42.664;23.594;2023-11-19T11:08:54;95491.56;;;19.14;26.02
23172;BME280;11754;42.664;23.594;2023-11-19T11:11:20;95495.03;;;18.26;27.07
23172;BME280;11754;42.664;23.594;2023-11-19T11:13:49;95472.28;;;19.12;26.31
23172;BME280;11754;42.664;23.594;2023-11-19T11:16:18;95476.03;;;18.79;26.09
23172;BME280;11754;42.664;23.594;2023-11-19T11:18:45;95467.47;;;18.32;27.34
23172;BME280;11754;42.664;23.594;2023-11-19T11:21:17;95452.94;;;23.73;22.47
23172;BME280;11754;42.664;23.594;2023-11-19T11:29:40;95432.66;;;30.55;15.18
23172;BME280;11754;42.664;23.594;2023-11-19T11:32:41;95439.09;;;26.11;17.58
23172;BME280;11754;42.664;23.594;2023-11-19T11:38:08;95459.81;;;23.86;19.82
23172;BME280;11754;42.664;23.594;2023-11-19T11:40:34;95457.75;;;28.27;16.72
23172;BME280;11754;42.664;23.594;2023-11-19T11:43:01;95449.72;;;30.17;15.47
23172;BME280;11754;42.664;23.594;2023-11-19T11:45:37;95455.88;;;31.55;14.51
23172;BME280;11754;42.664;23.594;2023-11-19T11:48:19;95434.41;;;31.81;13.87
23172;BME280;11754;42.664;23.594;2023-11-19T11:53:51;95412.78;;;34.89;11.82
23172;BME280;11754;42.664;23.594;2023-11-19T11:56:17;95415.63;;;36.39;11.93
23172;BME280;11754;42.664;23.594;2023-11-19T11:58:42;95412.31;;;37.50;10.87
23172;BME280;11754;42.664;23.594;2023-11-19T12:01:14;95406.00;;;38.08;10.27
23172;BME280;11754;42.664;23.594;2023-11-19T12:03:45;95440.53;;;34.71;11.53
23172;BME280;11754;42.664;23.594;2023-11-19T12:06:11;95442.13;;;30.57;14.17
23172;BME280;11754;42.664;23.594;2023-11-19T12:08:38;95438.72;;;27.52;15.62
23172;BME280;11754;42.664;23.594;2023-11-19T12:11:05;95443.81;;;25.36;17.55
23172;BME280;11754;42.664;23.594;2023-11-19T12:17:03;95429.94;;;24.90;18.43
23172;BME280;11754;42.664;23.594;2023-11-19T12:19:29;95436.16;;;28.62;15.63
23172;BME280;11754;42.664;23.594;2023-11-19T12:21:54;95427.34;;;30.45;14.46
23172;BME280;11754;42.664;23.594;2023-11-19T12:24:21;95408.00;;;33.18;12.66
23172;BME280;11754;42.664;23.594;2023-11-19T12:26:46;95394.56;;;34.41;11.93
23172;BME280;11754;42.664;23.594;2023-11-19T12:29:15;95406.69;;;36.51;10.97
23172;BME280;11754;42.664;23.594;2023-11-19T12:31:44;95406.69;;;36.51;10.93
23172;BME280;11754;42.664;23.594;2023-11-19T12:37:31;95396.91;;;38.81;9.74
23172;BME280;11754;42.664;23.594;2023-11-19T12:39:57;95364.47;;;39.18;9.59
23172;BME280;11754;42.664;23.594;2023-11-19T12:42:38;95381.16;;;40.13;8.94
23172;BME280;11754;42.664;23.594;2023-11-19T12:45:05;95369.72;;;39.67;8.94
23172;BME280;11754;42.664;23.594;2023-11-19T12:51:11;95354.69;;;39.96;8.97
23172;BME280;11754;42.664;23.594;2023-11-19T12:53:53;95344.59;;;40.55;8.75
23172;BME280;11754;42.664;23.594;2023-11-19T12:56:24;95356.56;;;39.76;8.94
23172;BME280;11754;42.664;23.594;2023-11-19T12:58:50;95358.56;;;39.63;8.97
23172;BME280;11754;42.664;23.594;2023-11-19T13:01:19;95364.38;;;38.86;9.12
23172;BME280;11754;42.664;23.594;2023-11-19T13:03:45;95362.88;;;39.17;9.16
23172;BME280;11754;42.664;23.594;2023-11-19T13:06:13;95354.84;;;39.12;9.42
23172;BME280;11754;42.664;23.594;2023-11-19T13:08:48;95351.94;;;39.80;8.97
23172;BME280;11754;42.664;23.594;2023-11-19T13:11:19;95342.91;;;39.08;9.06
23172;BME280;11754;42.664;23.594;2023-11-19T13:13:57;95341.97;;;37.74;9.88
23172;BME280;11754;42.664;23.594;2023-11-19T13:16:23;95334.16;;;37.06;10.09
23172;BME280;11754;42.664;23.594;2023-11-19T13:18:49;95341.47;;;35.50;10.52
23172;BME280;11754;42.664;23.594;2023-11-19T13:21:14;95336.06;;;34.29;11.02
23172;BME280;11754;42.664;23.594;2023-11-19T13:23:40;95340.13;;;34.92;11.09
23172;BME280;11754;42.664;23.594;2023-11-19T13:26:05;95325.63;;;35.47;10.90
23172;BME280;11754;42.664;23.594;2023-11-19T13:28:31;95309.13;;;36.66;10.36
23172;BME280;11754;42.664;23.594;2023-11-19T13:30:57;95320.09;;;37.90;9.60
23172;BME280;11754;42.664;23.594;2023-11-19T13:33:23;95308.28;;;38.02;9.73
23172;BME280;11754;42.664;23.594;2023-11-19T13:35:49;95314.63;;;35.18;10.56
23172;BME280;11754;42.664;23.594;2023-11-19T13:38:14;95315.16;;;31.32;12.78
23172;BME280;11754;42.664;23.594;2023-11-19T13:40:40;95318.97;;;28.15;14.61
23172;BME280;11754;42.664;23.594;2023-11-19T13:43:05;95319.13;;;24.97;16.88
23172;BME280;11754;42.664;23.594;2023-11-19T13:45:31;95328.47;;;23.93;17.92
23172;BME280;11754;42.664;23.594;2023-11-19T13:47:56;95333.34;;;24.50;17.77
23172;BME280;11754;42.664;23.594;2023-11-19T13:50:22;95333.50;;;24.71;17.77
23172;BME280;11754;42.664;23.594;2023-11-19T13:52:48;95328.16;;;25.76;16.98
23172;BME280;11754;42.664;23.594;2023-11-19T13:55:14;95342.84;;;24.04;18.19
23172;BME280;11754;42.664;23.594;2023-11-19T13:57:41;95349.59;;;23.18;18.92
23172;BME280;11754;42.664;23.594;2023-11-19T14:00:25;95350.47;;;22.51;19.48
23172;BME280;11754;42.664;23.594;2023-11-19T14:02:51;95348.91;;;22.10;19.66
23172;BME280;11754;42.664;23.594;2023-11-19T14:05:17;95355.78;;;21.61;20.54
23172;BME280;11754;42.664;23.594;2023-11-19T14:07:43;95373.53;;;21.26;20.62